Time;durP1;ratioP1;P1;durP2;ratioP2;P2;SDS_P1;SDS_P2;PMS_P1;PMS_P2;Temp;Humidity;BMP_temperature;BMP_pressure;BME280_temperature;BME280_humidity;BME280_pressure;Samples;Min_cycle;Max_cycle;Signal;HPM_P1;HPM_P2
2022/11/05 00:10:31;;;;;;;;;;;10.50;99.90;;;;;;2603802;54;20775;31
2022/11/05 00:18:40;;;;;;;;;;;10.40;99.90;;;;;;2608867;46;19934;31
2022/11/05 00:26:46;;;;;;;;;;;10.30;99.90;;;;;;2603474;54;20758;31
2022/11/05 00:29:21;;;;;;;;;;;10.30;99.90;;;;;;2603415;54;19935;31
2022/11/05 00:31:54;;;;;;;;;;;10.20;99.90;;;;;;2603533;54;20725;31
2022/11/05 00:34:31;;;;;;;;;;;10.30;99.90;;;;;;2603576;54;20527;31
2022/11/05 00:37:05;;;;;;;;;;;10.20;99.90;;;;;;2603235;54;20742;31
2022/11/05 00:39:39;;;;;;;;;;;10.20;99.90;;;;;;2603720;54;20787;31
2022/11/05 00:45:05;;;;;;;;;;;10.10;99.90;;;;;;2622081;46;20328;31
2022/11/05 00:50:27;;;;;;;;;;;10.10;99.90;;;;;;2603414;54;19938;31
2022/11/05 00:53:03;;;;;;;;;;;10.10;99.90;;;;;;2603469;54;20770;31
2022/11/05 00:55:36;;;;;;;;;;;10.10;99.90;;;;;;2603387;54;20698;31
2022/11/05 00:58:10;;;;;;;;;;;10.10;99.90;;;;;;2603394;54;20684;31
2022/11/05 01:00:45;;;;;;;;;;;10.10;99.90;;;;;;2603598;54;19935;31
2022/11/05 01:03:19;;;;;;;;;;;10.10;99.90;;;;;;2603482;54;19939;31
2022/11/05 01:05:55;;;;;;;;;;;10.10;99.90;;;;;;2603535;54;20726;31
2022/11/05 01:08:29;;;;;;;;;;;10.10;99.90;;;;;;2702136;39;20369;31
2022/11/05 01:11:04;;;;;;;;;;;10.10;99.90;;;;;;2603283;54;20815;31
2022/11/05 01:13:38;;;;;;;;;;;10.10;99.90;;;;;;2603252;54;20714;31
2022/11/05 01:16:13;;;;;;;;;;;10.10;99.90;;;;;;2603384;54;20768;31
2022/11/05 01:18:46;;;;;;;;;;;10.10;99.90;;;;;;2720069;39;20327;31
2022/11/05 01:21:23;;;;;;;;;;;10.10;99.90;;;;;;2604613;47;19941;31
2022/11/05 01:23:57;;;;;;;;;;;10.10;99.90;;;;;;2603249;54;20806;31
2022/11/05 01:26:32;;;;;;;;;;;10.10;99.90;;;;;;2603329;54;19990;31
2022/11/05 01:29:06;;;;;;;;;;;10.10;99.90;;;;;;2603343;54;19941;31
2022/11/05 01:31:40;;;;;;;;;;;10.00;99.90;;;;;;2617639;47;20769;31
2022/11/05 01:34:14;;;;;;;;;;;10.00;99.90;;;;;;2603339;54;19989;31
2022/11/05 01:36:51;;;;;;;;;;;10.00;99.90;;;;;;2603288;54;19996;31
2022/11/05 01:39:23;;;;;;;;;;;10.00;99.90;;;;;;2603371;54;20748;31
2022/11/05 01:41:57;;;;;;;;;;;9.90;99.90;;;;;;2603268;54;20742;31
2022/11/05 01:44:46;;;;;;;;;;;9.90;99.90;;;;;;2603335;54;20698;31
2022/11/05 01:47:22;;;;;;;;;;;9.90;99.90;;;;;;2603309;54;19934;31
2022/11/05 01:49:56;;;;;;;;;;;9.90;99.90;;;;;;2603187;54;19935;31
2022/11/05 01:52:32;;;;;;;;;;;9.80;99.90;;;;;;2604045;47;20794;31
2022/11/05 01:55:07;;;;;;;;;;;9.70;99.90;;;;;;2603426;54;19935;31
2022/11/05 01:57:40;;;;;;;;;;;9.60;99.90;;;;;;2603221;54;19942;31
2022/11/05 02:00:15;;;;;;;;;;;9.60;99.90;;;;;;2603362;54;19941;31
2022/11/05 02:02:49;;;;;;;;;;;9.60;99.90;;;;;;2621503;47;19941;31
2022/11/05 02:05:23;;;;;;;;;;;9.50;99.90;;;;;;2613076;47;20747;31
2022/11/05 02:08:00;;;;;;;;;;;9.50;99.90;;;;;;2603003;54;20745;31
2022/11/05 02:10:35;;;;;;;;;;;9.50;99.90;;;;;;2603427;54;20803;31
2022/11/05 02:13:09;;;;;;;;;;;9.40;99.90;;;;;;2603348;54;20729;31
2022/11/05 02:15:50;;;;;;;;;;;9.40;99.90;;;;;;2621709;47;19934;31
2022/11/05 02:18:26;;;;;;;;;;;9.30;99.90;;;;;;2603848;54;19935;31
2022/11/05 02:21:03;;;;;;;;;;;9.30;99.90;;;;;;2604136;54;20740;31
2022/11/05 02:24:04;;;;;;;;;;;9.30;99.90;;;;;;2609523;46;19934;31
2022/11/05 02:26:52;;;;;;;;;;;9.30;99.90;;;;;;2622294;46;19942;31
2022/11/05 02:29:41;;;;;;;;;;;9.30;99.90;;;;;;2603823;54;20009;31
2022/11/05 02:32:19;;;;;;;;;;;9.30;99.90;;;;;;2603867;54;19938;31
2022/11/05 02:34:56;;;;;;;;;;;9.30;99.90;;;;;;2604160;54;20762;31
2022/11/05 02:37:32;;;;;;;;;;;9.30;99.90;;;;;;2622285;46;20369;31
2022/11/05 02:40:07;;;;;;;;;;;9.30;99.90;;;;;;2622423;46;19946;31
2022/11/05 02:42:43;;;;;;;;;;;9.30;99.90;;;;;;2604021;54;19935;31
2022/11/05 02:45:20;;;;;;;;;;;9.60;99.90;;;;;;2603998;54;20780;31
2022/11/05 02:47:57;;;;;;;;;;;9.30;99.90;;;;;;2603789;54;19942;31
2022/11/05 02:50:31;;;;;;;;;;;9.30;99.90;;;;;;2603890;54;19957;31
2022/11/05 02:53:05;;;;;;;;;;;9.30;99.90;;;;;;2622360;46;19934;31
2022/11/05 02:55:41;;;;;;;;;;;9.30;99.90;;;;;;2603868;54;20834;31
2022/11/05 02:58:15;;;;;;;;;;;9.30;99.90;;;;;;2603671;54;21290;31
2022/11/05 03:00:51;;;;;;;;;;;9.30;99.90;;;;;;2603788;54;19935;31
2022/11/05 03:03:28;;;;;;;;;;;9.30;99.90;;;;;;2603787;54;20786;31
2022/11/05 03:06:26;;;;;;;;;;;9.30;99.90;;;;;;2603808;54;19939;31
2022/11/05 03:09:04;;;;;;;;;;;9.30;99.90;;;;;;2603413;54;19946;31
2022/11/05 03:11:38;;;;;;;;;;;9.30;99.90;;;;;;2618058;46;19934;31
2022/11/05 03:14:14;;;;;;;;;;;9.30;99.90;;;;;;2622562;46;19934;31
2022/11/05 03:16:48;;;;;;;;;;;9.30;99.90;;;;;;2603845;54;19946;31
2022/11/05 03:19:29;;;;;;;;;;;9.30;99.90;;;;;;2603594;54;20469;31
2022/11/05 03:22:04;;;;;;;;;;;9.20;99.90;;;;;;2603919;54;20025;31
2022/11/05 03:24:39;;;;;;;;;;;9.20;99.90;;;;;;2622131;46;20883;31
2022/11/05 03:27:14;;;;;;;;;;;9.20;99.90;;;;;;2603596;54;19935;31
2022/11/05 03:29:49;;;;;;;;;;;9.20;99.90;;;;;;2613609;46;19934;31
2022/11/05 03:32:22;;;;;;;;;;;9.20;99.90;;;;;;2603928;54;19934;31
2022/11/05 03:35:00;;;;;;;;;;;9.20;99.90;;;;;;2603729;54;20790;31
2022/11/05 03:37:36;;;;;;;;;;;9.10;99.90;;;;;;2603904;54;19954;31
2022/11/05 03:40:11;;;;;;;;;;;9.10;99.90;;;;;;2603636;54;20947;31
2022/11/05 03:42:45;;;;;;;;;;;9.10;99.90;;;;;;2603718;54;19941;31
2022/11/05 03:45:20;;;;;;;;;;;9.10;99.90;;;;;;2702403;39;20413;31
2022/11/05 03:47:53;;;;;;;;;;;9.10;99.90;;;;;;2603879;54;20794;31
2022/11/05 03:50:32;;;;;;;;;;;9.10;99.90;;;;;;2603650;54;20770;31
2022/11/05 03:53:15;;;;;;;;;;;9.10;99.90;;;;;;2720703;39;20389;31
2022/11/05 03:55:49;;;;;;;;;;;9.10;99.90;;;;;;2603680;54;19935;31
2022/11/05 03:58:23;;;;;;;;;;;9.10;99.90;;;;;;2612760;46;20792;31
2022/11/05 04:00:58;;;;;;;;;;;9.00;99.90;;;;;;2603797;54;20012;31
2022/11/05 04:03:35;;;;;;;;;;;9.00;99.90;;;;;;2622236;46;20806;31
2022/11/05 04:14:32;;;;;;;;;;;9.00;99.90;;;;;;2603682;54;19934;31
2022/11/05 04:17:09;;;;;;;;;;;9.00;99.90;;;;;;2603508;54;20009;31
2022/11/05 04:25:19;;;;;;;;;;;9.00;99.90;;;;;;2603417;54;19941;31
2022/11/05 04:27:54;;;;;;;;;;;9.00;99.90;;;;;;2622276;46;19935;31
2022/11/05 04:30:23;;;;;;;;;;;9.00;99.90;;;;;;2622023;46;19938;31
2022/11/05 04:32:58;;;;;;;;;;;9.00;99.90;;;;;;2613799;46;19993;31
2022/11/05 04:35:31;;;;;;;;;;;9.10;99.90;;;;;;2603691;54;19981;31
2022/11/05 04:38:09;;;;;;;;;;;9.00;99.90;;;;;;2603201;54;20749;31
2022/11/05 04:40:42;;;;;;;;;;;9.00;99.90;;;;;;2603579;54;20746;31
2022/11/05 04:43:17;;;;;;;;;;;9.00;99.90;;;;;;2603553;54;19986;31
2022/11/05 04:48:26;;;;;;;;;;;9.00;99.90;;;;;;2603651;54;20743;31
2022/11/05 04:51:00;;;;;;;;;;;9.00;99.90;;;;;;2613271;46;20701;31
2022/11/05 04:53:37;;;;;;;;;;;9.00;99.90;;;;;;2603184;54;19958;31
2022/11/05 04:56:12;;;;;;;;;;;9.00;99.90;;;;;;2603387;54;19942;31
2022/11/05 04:58:47;;;;;;;;;;;9.00;99.90;;;;;;2603265;54;19934;31
2022/11/05 05:01:21;;;;;;;;;;;8.90;99.90;;;;;;2617854;46;19934;31
2022/11/05 05:03:55;;;;;;;;;;;8.90;99.90;;;;;;2603284;54;20724;31
2022/11/05 05:06:29;;;;;;;;;;;8.90;99.90;;;;;;2608649;46;20559;31
2022/11/05 05:09:06;;;;;;;;;;;8.90;99.90;;;;;;2603336;54;19993;31
2022/11/05 05:11:40;;;;;;;;;;;8.90;99.90;;;;;;2621716;46;19954;31
2022/11/05 05:14:15;;;;;;;;;;;8.90;99.90;;;;;;2621805;46;20826;31
2022/11/05 05:16:48;;;;;;;;;;;8.90;99.90;;;;;;2604247;46;20013;31
2022/11/05 05:19:22;;;;;;;;;;;9.10;99.90;;;;;;2621658;46;19940;31
2022/11/05 05:21:53;;;;;;;;;;;9.10;99.90;;;;;;2619185;46;19990;31
2022/11/05 05:24:30;;;;;;;;;;;9.20;99.90;;;;;;2603458;54;20749;31
2022/11/05 05:27:06;;;;;;;;;;;8.90;99.90;;;;;;2603074;54;19989;31
2022/11/05 05:29:39;;;;;;;;;;;8.90;99.90;;;;;;2603322;54;20803;31
2022/11/05 05:32:11;;;;;;;;;;;8.90;99.90;;;;;;2603327;54;19935;31
2022/11/05 05:34:45;;;;;;;;;;;9.30;99.90;;;;;;2622008;47;20784;31
2022/11/05 05:37:19;;;;;;;;;;;8.90;99.90;;;;;;2701743;39;21375;31
2022/11/05 05:39:56;;;;;;;;;;;8.90;99.90;;;;;;2603151;54;19993;31
2022/11/05 05:45:00;;;;;;;;;;;8.90;99.90;;;;;;2603115;54;20528;31
2022/11/05 05:47:34;;;;;;;;;;;8.90;99.90;;;;;;2603093;54;20698;31
2022/11/05 05:50:08;;;;;;;;;;;8.90;99.90;;;;;;2701778;39;20370;31
2022/11/05 05:52:42;;;;;;;;;;;8.90;99.90;;;;;;2603867;54;20785;31
2022/11/05 05:55:19;;;;;;;;;;;8.90;99.90;;;;;;2622307;46;19941;31
2022/11/05 05:57:52;;;;;;;;;;;9.30;99.90;;;;;;2622383;46;19942;31
2022/11/05 06:00:26;;;;;;;;;;;9.20;99.90;;;;;;2613936;46;20744;31
2022/11/05 06:03:00;;;;;;;;;;;8.90;99.90;;;;;;2604202;54;20756;31
2022/11/05 06:05:35;;;;;;;;;;;8.90;99.90;;;;;;2622133;46;19934;31
2022/11/05 06:08:08;;;;;;;;;;;9.00;99.90;;;;;;2613940;46;20675;31
2022/11/05 06:10:51;;;;;;;;;;;8.90;99.90;;;;;;2608300;46;19935;31
2022/11/05 06:13:26;;;;;;;;;;;8.90;99.90;;;;;;2603914;54;21200;31
2022/11/05 06:16:02;;;;;;;;;;;9.00;99.90;;;;;;2609245;46;20373;31
2022/11/05 06:18:35;;;;;;;;;;;9.00;99.90;;;;;;2603757;54;20824;31
2022/11/05 06:21:09;;;;;;;;;;;9.00;99.90;;;;;;2603853;54;19934;31
2022/11/05 06:23:44;;;;;;;;;;;9.00;99.90;;;;;;2603936;54;20780;31
2022/11/05 06:26:22;;;;;;;;;;;9.00;99.90;;;;;;2702567;39;20373;31
2022/11/05 06:28:57;;;;;;;;;;;9.00;99.90;;;;;;2603837;54;21375;31
2022/11/05 06:31:33;;;;;;;;;;;9.00;99.90;;;;;;2622550;46;20799;31
2022/11/05 06:34:07;;;;;;;;;;;9.00;99.90;;;;;;2604103;46;19968;31
2022/11/05 06:36:41;;;;;;;;;;;9.00;99.90;;;;;;2603876;54;20800;31
2022/11/05 06:39:16;;;;;;;;;;;9.00;99.90;;;;;;2603844;54;20009;31
2022/11/05 06:41:53;;;;;;;;;;;9.00;99.90;;;;;;2603758;54;20748;31
2022/11/05 06:44:48;;;;;;;;;;;9.10;99.90;;;;;;2622419;46;20694;31
2022/11/05 06:47:23;;;;;;;;;;;9.10;99.90;;;;;;2604019;54;20750;31
2022/11/05 06:50:01;;;;;;;;;;;9.10;99.90;;;;;;2603928;54;19935;31
2022/11/05 06:52:35;;;;;;;;;;;9.10;99.90;;;;;;2603983;54;20428;31
2022/11/05 06:55:14;;;;;;;;;;;9.10;99.90;;;;;;2603902;54;19935;31
2022/11/05 06:57:51;;;;;;;;;;;9.10;99.90;;;;;;2603122;54;20948;31
2022/11/05 07:00:26;;;;;;;;;;;9.10;99.90;;;;;;2603667;54;20720;31
2022/11/05 07:02:57;;;;;;;;;;;9.10;99.90;;;;;;2608820;46;22241;31
2022/11/05 07:05:31;;;;;;;;;;;9.10;99.90;;;;;;2622322;46;19993;31
2022/11/05 07:08:06;;;;;;;;;;;9.10;99.90;;;;;;2603756;54;20737;31
2022/11/05 07:10:39;;;;;;;;;;;9.10;99.90;;;;;;2603773;54;19940;31
2022/11/05 07:13:15;;;;;;;;;;;9.20;99.90;;;;;;2603713;54;20763;31
2022/11/05 07:15:50;;;;;;;;;;;9.10;99.90;;;;;;2603852;54;20045;31
2022/11/05 07:18:24;;;;;;;;;;;9.10;99.90;;;;;;2603830;54;20011;31
2022/11/05 07:20:59;;;;;;;;;;;9.10;99.90;;;;;;2603518;54;19966;31
2022/11/05 07:23:33;;;;;;;;;;;9.10;99.90;;;;;;2602827;54;20860;31
2022/11/05 07:26:07;;;;;;;;;;;9.10;99.90;;;;;;2603817;54;19946;31
2022/11/05 07:28:44;;;;;;;;;;;9.10;99.90;;;;;;2621962;46;19934;31
2022/11/05 07:31:20;;;;;;;;;;;9.10;99.90;;;;;;2603659;54;20720;31
2022/11/05 07:33:55;;;;;;;;;;;9.10;99.90;;;;;;2603686;54;20781;31
2022/11/05 07:36:28;;;;;;;;;;;9.10;99.90;;;;;;2603363;54;19946;31
2022/11/05 07:39:03;;;;;;;;;;;9.10;99.90;;;;;;2603850;54;20737;31
2022/11/05 07:41:37;;;;;;;;;;;9.10;99.90;;;;;;2613701;46;19961;31
2022/11/05 07:44:16;;;;;;;;;;;9.10;99.90;;;;;;2720602;39;20296;31
2022/11/05 07:46:52;;;;;;;;;;;9.20;99.90;;;;;;2603586;54;19989;31
2022/11/05 07:49:27;;;;;;;;;;;9.20;99.90;;;;;;2603595;54;19946;31
2022/11/05 07:52:02;;;;;;;;;;;9.30;99.90;;;;;;2603804;54;20725;31
2022/11/05 07:54:36;;;;;;;;;;;9.30;99.90;;;;;;2622350;46;20765;31
2022/11/05 07:57:10;;;;;;;;;;;9.30;99.90;;;;;;2602988;54;20843;31
2022/11/05 07:59:47;;;;;;;;;;;9.40;99.90;;;;;;2605085;46;20764;31
2022/11/05 08:02:26;;;;;;;;;;;9.40;99.90;;;;;;2603251;46;20793;31
2022/11/05 08:05:02;;;;;;;;;;;9.50;99.90;;;;;;2603875;54;19950;31
2022/11/05 08:07:35;;;;;;;;;;;9.50;99.90;;;;;;2603672;54;19989;31
2022/11/05 08:10:13;;;;;;;;;;;9.50;99.90;;;;;;2603466;54;19957;31
2022/11/05 08:12:50;;;;;;;;;;;9.60;99.90;;;;;;2701868;39;20313;31
2022/11/05 08:15:32;;;;;;;;;;;9.60;99.90;;;;;;2603445;54;19938;31
2022/11/05 08:18:07;;;;;;;;;;;9.60;99.90;;;;;;2603577;54;20776;31
2022/11/05 08:20:45;;;;;;;;;;;9.70;99.90;;;;;;2608184;46;19956;31
2022/11/05 08:23:18;;;;;;;;;;;9.70;99.90;;;;;;2603258;54;20827;31
2022/11/05 08:25:56;;;;;;;;;;;9.70;99.90;;;;;;2607541;46;19942;31
2022/11/05 08:28:31;;;;;;;;;;;9.80;99.90;;;;;;2613541;46;20771;31
2022/11/05 08:31:16;;;;;;;;;;;9.80;99.90;;;;;;2621880;46;19934;31
2022/11/05 08:34:00;;;;;;;;;;;9.80;99.90;;;;;;2621827;46;19935;31
2022/11/05 08:36:39;;;;;;;;;;;9.80;99.90;;;;;;2603060;54;19934;31
2022/11/05 08:39:17;;;;;;;;;;;9.90;99.90;;;;;;2603582;54;19934;31
2022/11/05 08:41:56;;;;;;;;;;;9.90;99.90;;;;;;2621855;46;20001;31
2022/11/05 08:44:34;;;;;;;;;;;9.90;99.90;;;;;;2603408;54;19941;31
2022/11/05 08:47:10;;;;;;;;;;;10.00;99.90;;;;;;2621889;46;19942;31
2022/11/05 08:49:49;;;;;;;;;;;10.00;99.90;;;;;;2603490;54;19949;31
2022/11/05 08:52:26;;;;;;;;;;;10.00;99.90;;;;;;2602687;54;20877;31
2022/11/05 08:55:00;;;;;;;;;;;10.10;99.90;;;;;;2602584;54;20800;31
2022/11/05 08:57:34;;;;;;;;;;;10.10;99.90;;;;;;2603385;54;20805;31
2022/11/05 09:00:07;;;;;;;;;;;10.10;99.90;;;;;;2603619;54;20772;31
2022/11/05 09:02:44;;;;;;;;;;;10.10;99.90;;;;;;2621878;46;20869;31
2022/11/05 09:05:19;;;;;;;;;;;10.20;99.90;;;;;;2603325;54;19935;31
2022/11/05 09:07:54;;;;;;;;;;;10.20;99.90;;;;;;2603535;54;20103;31
2022/11/05 09:10:36;;;;;;;;;;;10.20;99.90;;;;;;2621838;46;20013;31
2022/11/05 09:13:10;;;;;;;;;;;10.20;99.90;;;;;;2603351;54;19935;31
2022/11/05 09:15:53;;;;;;;;;;;10.20;99.90;;;;;;2603340;54;20025;31
2022/11/05 09:18:31;;;;;;;;;;;10.30;99.90;;;;;;2602625;54;20855;31
2022/11/05 09:21:11;;;;;;;;;;;10.30;99.90;;;;;;2621335;46;19935;31
2022/11/05 09:23:47;;;;;;;;;;;10.30;99.90;;;;;;2603538;54;19946;31
2022/11/05 09:26:22;;;;;;;;;;;10.30;99.90;;;;;;2603232;54;20087;31
2022/11/05 09:28:55;;;;;;;;;;;10.40;99.90;;;;;;2603440;54;19942;31
2022/11/05 09:31:30;;;;;;;;;;;10.40;99.90;;;;;;2603076;54;19997;31
2022/11/05 09:34:06;;;;;;;;;;;10.40;99.90;;;;;;2621822;47;20768;31
2022/11/05 09:36:40;;;;;;;;;;;10.50;99.90;;;;;;2603028;54;20741;31
2022/11/05 09:39:17;;;;;;;;;;;10.50;99.90;;;;;;2603412;54;19939;31
2022/11/05 09:41:51;;;;;;;;;;;10.50;99.90;;;;;;2602461;54;20763;31
2022/11/05 09:44:26;;;;;;;;;;;10.60;99.90;;;;;;2602709;54;19934;31
2022/11/05 09:47:00;;;;;;;;;;;10.50;99.90;;;;;;2603381;54;20788;31
2022/11/05 09:49:40;;;;;;;;;;;10.60;99.90;;;;;;2603178;54;19950;31
2022/11/05 09:52:15;;;;;;;;;;;10.60;99.90;;;;;;2603351;54;19934;31
2022/11/05 09:54:50;;;;;;;;;;;10.60;99.90;;;;;;2603113;54;19977;31
2022/11/05 09:57:25;;;;;;;;;;;10.60;99.90;;;;;;2603155;54;20011;31
2022/11/05 09:59:59;;;;;;;;;;;10.70;99.90;;;;;;2602978;54;19946;31
2022/11/05 10:02:34;;;;;;;;;;;10.70;99.90;;;;;;2603278;54;19942;31
2022/11/05 10:05:13;;;;;;;;;;;10.70;99.90;;;;;;2604390;47;19941;31
2022/11/05 10:07:49;;;;;;;;;;;10.70;99.90;;;;;;2608488;47;19941;31
2022/11/05 10:10:27;;;;;;;;;;;10.70;99.90;;;;;;2621858;47;19941;31
2022/11/05 10:13:00;;;;;;;;;;;10.70;99.90;;;;;;2621712;47;19941;31
2022/11/05 10:15:35;;;;;;;;;;;11.00;99.90;;;;;;2602548;54;19935;31
2022/11/05 10:18:14;;;;;;;;;;;11.00;99.90;;;;;;2602433;54;19978;31
2022/11/05 10:20:52;;;;;;;;;;;11.00;99.90;;;;;;2621703;47;19993;31
2022/11/05 10:23:29;;;;;;;;;;;11.00;99.90;;;;;;2617779;47;20773;31
2022/11/05 10:26:05;;;;;;;;;;;11.00;99.90;;;;;;2621752;47;20025;31
2022/11/05 10:28:38;;;;;;;;;;;11.00;99.90;;;;;;2621163;47;19934;31
2022/11/05 10:31:14;;;;;;;;;;;11.00;99.90;;;;;;2621746;47;20726;31
2022/11/05 10:33:48;;;;;;;;;;;11.00;99.90;;;;;;2603074;54;19957;31
2022/11/05 10:36:26;;;;;;;;;;;11.00;99.90;;;;;;2720429;39;20427;31
2022/11/05 10:39:02;;;;;;;;;;;11.00;99.90;;;;;;2603960;54;20747;31
2022/11/05 10:41:39;;;;;;;;;;;11.10;99.90;;;;;;2603887;54;19935;31
2022/11/05 10:44:17;;;;;;;;;;;11.00;99.90;;;;;;2603711;54;19934;31
2022/11/05 10:46:57;;;;;;;;;;;11.10;99.90;;;;;;2604026;54;20026;31
2022/11/05 10:49:36;;;;;;;;;;;11.10;99.90;;;;;;2603939;54;19990;31
2022/11/05 10:52:18;;;;;;;;;;;11.10;99.90;;;;;;2602850;54;20691;31
2022/11/05 10:54:52;;;;;;;;;;;11.20;99.90;;;;;;2603066;54;19984;31
2022/11/05 10:57:36;;;;;;;;;;;11.20;99.90;;;;;;2603425;54;19961;31
2022/11/05 11:00:25;;;;;;;;;;;11.20;99.90;;;;;;2603617;54;19960;31
2022/11/05 11:03:00;;;;;;;;;;;11.20;99.90;;;;;;2627466;46;19926;31
2022/11/05 11:05:34;;;;;;;;;;;11.30;99.90;;;;;;2604462;54;19986;31
2022/11/05 11:08:19;;;;;;;;;;;11.30;99.90;;;;;;2604650;46;20874;31
2022/11/05 11:10:52;;;;;;;;;;;11.40;99.90;;;;;;2604006;54;20748;31
2022/11/05 11:13:27;;;;;;;;;;;11.40;99.90;;;;;;2603680;54;20764;31
2022/11/05 11:16:15;;;;;;;;;;;11.50;99.90;;;;;;2604920;46;19938;31
2022/11/05 11:18:51;;;;;;;;;;;11.50;99.90;;;;;;2603995;54;20781;31
2022/11/05 11:21:25;;;;;;;;;;;11.50;99.90;;;;;;2617881;46;19942;31
2022/11/05 11:24:05;;;;;;;;;;;11.60;99.90;;;;;;2603140;54;20817;31
2022/11/05 11:26:40;;;;;;;;;;;11.60;99.90;;;;;;2604053;54;19935;31
2022/11/05 11:29:14;;;;;;;;;;;11.50;99.90;;;;;;2603871;54;19942;31
2022/11/05 11:31:50;;;;;;;;;;;11.50;99.90;;;;;;2603708;54;19961;31
2022/11/05 11:34:32;;;;;;;;;;;11.50;99.90;;;;;;2622118;46;19941;31
2022/11/05 11:37:07;;;;;;;;;;;11.50;99.90;;;;;;2603555;54;20020;31
2022/11/05 11:39:47;;;;;;;;;;;11.60;99.90;;;;;;2622273;46;20805;31
2022/11/05 11:42:22;;;;;;;;;;;11.60;99.90;;;;;;2621920;46;19934;31
2022/11/05 11:44:57;;;;;;;;;;;11.60;99.90;;;;;;2603652;54;19938;31
2022/11/05 11:47:34;;;;;;;;;;;11.60;99.90;;;;;;2603647;54;20718;31
2022/11/05 11:50:09;;;;;;;;;;;11.60;99.90;;;;;;2622110;46;19934;31
2022/11/05 11:52:42;;;;;;;;;;;11.60;99.90;;;;;;2603974;54;20737;31
2022/11/05 11:55:24;;;;;;;;;;;11.60;99.90;;;;;;2603407;54;20879;31
2022/11/05 11:58:07;;;;;;;;;;;11.60;99.90;;;;;;2604778;46;19942;31
2022/11/05 12:00:43;;;;;;;;;;;11.60;99.90;;;;;;2622365;46;20769;31
2022/11/05 12:03:21;;;;;;;;;;;11.60;99.90;;;;;;2603245;54;19942;31
2022/11/05 12:05:57;;;;;;;;;;;11.60;99.90;;;;;;2603770;54;20761;31
2022/11/05 12:08:35;;;;;;;;;;;11.60;99.90;;;;;;2603422;54;20779;31
2022/11/05 12:11:12;;;;;;;;;;;11.70;99.90;;;;;;2603664;54;20759;31
2022/11/05 12:14:03;;;;;;;;;;;11.60;99.90;;;;;;2603660;54;19946;31
2022/11/05 12:16:42;;;;;;;;;;;11.60;99.90;;;;;;2621955;46;19934;31
2022/11/05 12:19:19;;;;;;;;;;;11.70;99.90;;;;;;2622268;46;19950;31
2022/11/05 12:21:56;;;;;;;;;;;11.70;99.90;;;;;;2622091;46;20917;31
2022/11/05 12:24:45;;;;;;;;;;;11.70;99.90;;;;;;2603578;54;20847;31
2022/11/05 12:29:57;;;;;;;;;;;11.70;99.90;;;;;;2621922;46;19957;31
2022/11/05 12:32:34;;;;;;;;;;;11.70;99.90;;;;;;2603679;54;19934;31
2022/11/05 12:35:09;;;;;;;;;;;11.70;99.90;;;;;;2622083;46;19993;31
2022/11/05 12:37:46;;;;;;;;;;;11.80;99.90;;;;;;2622171;46;19934;31
2022/11/05 12:40:29;;;;;;;;;;;11.80;99.90;;;;;;2621910;46;19957;31
2022/11/05 12:43:05;;;;;;;;;;;11.90;99.90;;;;;;2622115;46;20805;31
2022/11/05 12:45:49;;;;;;;;;;;12.00;99.90;;;;;;2622231;46;19941;31
2022/11/05 12:48:37;;;;;;;;;;;12.00;99.90;;;;;;2609035;46;19935;31
2022/11/05 12:51:14;;;;;;;;;;;12.10;99.90;;;;;;2603416;54;19950;31
2022/11/05 12:53:58;;;;;;;;;;;12.00;99.90;;;;;;2604995;46;19938;31
2022/11/05 12:56:33;;;;;;;;;;;12.00;99.90;;;;;;2603226;54;19953;31
2022/11/05 12:59:08;;;;;;;;;;;12.00;99.90;;;;;;2603112;54;20750;31
2022/11/05 13:01:45;;;;;;;;;;;12.00;99.90;;;;;;2603587;54;19957;31
2022/11/05 13:04:22;;;;;;;;;;;12.10;99.90;;;;;;2603186;54;20848;31
2022/11/05 13:06:57;;;;;;;;;;;12.10;99.90;;;;;;2621808;46;20025;31
2022/11/05 13:09:32;;;;;;;;;;;12.10;99.90;;;;;;2622103;46;20735;31
2022/11/05 13:12:08;;;;;;;;;;;12.00;99.90;;;;;;2603163;54;20863;31
2022/11/05 13:14:43;;;;;;;;;;;12.00;99.90;;;;;;2603279;54;20788;31
2022/11/05 13:17:21;;;;;;;;;;;11.90;99.90;;;;;;2701232;39;20319;31
2022/11/05 13:19:57;;;;;;;;;;;11.80;99.90;;;;;;2622173;46;19940;31
2022/11/05 13:22:36;;;;;;;;;;;11.80;99.90;;;;;;2602572;54;19946;31
2022/11/05 13:25:13;;;;;;;;;;;11.70;99.90;;;;;;2613862;46;19941;31
2022/11/05 13:27:53;;;;;;;;;;;11.70;99.90;;;;;;2621752;46;19989;31
2022/11/05 13:30:28;;;;;;;;;;;11.90;99.90;;;;;;2603478;54;20696;31
2022/11/05 13:33:06;;;;;;;;;;;11.80;99.90;;;;;;2621937;46;19934;31
2022/11/05 13:35:43;;;;;;;;;;;11.80;99.90;;;;;;2622096;47;20742;31
2022/11/05 13:41:22;;;;;;;;;;;11.70;99.90;;;;;;2602997;54;19989;31
2022/11/05 13:44:04;;;;;;;;;;;11.60;99.90;;;;;;2615140;47;19935;31
2022/11/05 13:46:51;;;;;;;;;;;11.50;99.90;;;;;;2603324;54;20756;31
2022/11/05 13:49:37;;;;;;;;;;;11.40;99.90;;;;;;2603331;54;20749;31
2022/11/05 13:52:19;;;;;;;;;;;11.30;99.90;;;;;;2621920;47;19957;31
2022/11/05 13:55:04;;;;;;;;;;;11.40;99.90;;;;;;2602938;54;20827;31
2022/11/05 13:57:48;;;;;;;;;;;11.40;99.90;;;;;;2603315;54;20782;31
2022/11/05 14:00:24;;;;;;;;;;;11.30;99.90;;;;;;2603346;54;19990;31
2022/11/05 14:02:57;;;;;;;;;;;11.30;99.90;;;;;;2603249;54;19940;31
2022/11/05 14:05:35;;;;;;;;;;;11.30;99.90;;;;;;2602506;54;19993;31
2022/11/05 14:08:12;;;;;;;;;;;11.20;99.90;;;;;;2603243;54;20025;31
2022/11/05 14:10:48;;;;;;;;;;;11.20;99.90;;;;;;2621992;47;20758;31
2022/11/05 14:13:24;;;;;;;;;;;11.10;99.90;;;;;;2604104;54;20750;31
2022/11/05 14:15:59;;;;;;;;;;;11.10;99.90;;;;;;2616478;46;19957;31
2022/11/05 14:18:38;;;;;;;;;;;11.10;99.90;;;;;;2604239;54;19997;31
2022/11/05 14:21:26;;;;;;;;;;;11.00;99.90;;;;;;2604139;54;19961;31
2022/11/05 14:24:19;;;;;;;;;;;11.00;99.90;;;;;;2604149;54;20771;31
2022/11/05 14:27:07;;;;;;;;;;;11.00;99.90;;;;;;2604194;54;19993;31
2022/11/05 14:29:41;;;;;;;;;;;11.00;99.90;;;;;;2603975;54;20114;31
2022/11/05 14:32:28;;;;;;;;;;;11.00;99.90;;;;;;2603844;54;20706;31
2022/11/05 14:35:03;;;;;;;;;;;10.90;99.90;;;;;;2604030;54;19934;31
2022/11/05 14:37:38;;;;;;;;;;;10.90;99.90;;;;;;2603902;54;20801;31
2022/11/05 14:40:30;;;;;;;;;;;10.90;99.90;;;;;;2604102;54;20783;31
2022/11/05 14:43:05;;;;;;;;;;;10.90;99.90;;;;;;2622576;46;19935;31
2022/11/05 14:45:42;;;;;;;;;;;10.90;99.90;;;;;;2609674;46;19941;31
2022/11/05 14:48:25;;;;;;;;;;;10.90;99.90;;;;;;2603939;54;20736;31
2022/11/05 14:50:59;;;;;;;;;;;10.80;99.90;;;;;;2613636;46;19942;31
2022/11/05 14:53:33;;;;;;;;;;;10.80;99.90;;;;;;2603765;54;20066;31
2022/11/05 14:56:11;;;;;;;;;;;10.70;99.90;;;;;;2622601;46;19934;31
2022/11/05 14:58:44;;;;;;;;;;;10.70;99.90;;;;;;2609574;46;20751;31
2022/11/05 15:01:33;;;;;;;;;;;10.70;99.90;;;;;;2603925;54;19946;31
2022/11/05 15:04:17;;;;;;;;;;;10.60;99.90;;;;;;2603881;54;20780;31
2022/11/05 15:07:06;;;;;;;;;;;10.60;99.90;;;;;;2603882;54;20747;31
2022/11/05 15:09:39;;;;;;;;;;;10.60;99.90;;;;;;2622333;46;19934;31
2022/11/05 15:12:18;;;;;;;;;;;10.60;99.90;;;;;;2622345;46;19935;31
2022/11/05 15:14:55;;;;;;;;;;;10.50;99.90;;;;;;2622463;46;20764;31
2022/11/05 15:17:29;;;;;;;;;;;10.40;99.90;;;;;;2603925;54;19934;31
2022/11/05 15:20:09;;;;;;;;;;;10.40;99.90;;;;;;2622420;46;20027;31
2022/11/05 15:22:43;;;;;;;;;;;10.40;99.90;;;;;;2622343;46;20763;31
2022/11/05 15:25:19;;;;;;;;;;;10.40;99.90;;;;;;2622177;46;19934;31
2022/11/05 15:27:59;;;;;;;;;;;10.30;99.90;;;;;;2622559;46;20020;31
2022/11/05 15:30:32;;;;;;;;;;;10.30;99.90;;;;;;2622134;46;19934;31
2022/11/05 15:33:10;;;;;;;;;;;10.20;99.90;;;;;;2603556;54;20005;31
2022/11/05 15:35:45;;;;;;;;;;;10.20;99.90;;;;;;2702113;39;21424;31
2022/11/05 15:38:22;;;;;;;;;;;10.20;99.90;;;;;;2622166;46;19935;31
2022/11/05 15:41:00;;;;;;;;;;;10.20;99.90;;;;;;2603826;54;20754;31
2022/11/05 15:43:36;;;;;;;;;;;10.20;99.90;;;;;;2702216;39;21296;31
2022/11/05 15:46:10;;;;;;;;;;;10.10;99.90;;;;;;2603292;54;20805;31
2022/11/05 15:48:48;;;;;;;;;;;10.10;99.90;;;;;;2603744;54;19934;31
2022/11/05 15:51:23;;;;;;;;;;;10.10;99.90;;;;;;2603534;54;19935;31
2022/11/05 15:53:57;;;;;;;;;;;10.10;99.90;;;;;;2603649;54;19934;31
2022/11/05 15:56:51;;;;;;;;;;;10.10;99.90;;;;;;2622071;46;19974;31
2022/11/05 15:59:28;;;;;;;;;;;10.10;99.90;;;;;;2603744;54;19935;31
2022/11/05 16:02:04;;;;;;;;;;;10.10;99.90;;;;;;2603675;54;19997;31
2022/11/05 16:04:38;;;;;;;;;;;10.10;99.90;;;;;;2602985;54;20037;31
2022/11/05 16:07:12;;;;;;;;;;;10.10;99.90;;;;;;2622105;46;20859;31
2022/11/05 16:09:52;;;;;;;;;;;10.10;99.90;;;;;;2603795;54;19942;31
2022/11/05 16:12:26;;;;;;;;;;;10.00;99.90;;;;;;2603568;54;20775;31
2022/11/05 16:15:04;;;;;;;;;;;10.00;99.90;;;;;;2603463;54;19946;31
2022/11/05 16:17:47;;;;;;;;;;;9.90;99.90;;;;;;2603485;54;19934;31
2022/11/05 16:20:23;;;;;;;;;;;10.00;99.90;;;;;;2603639;54;20697;31
2022/11/05 16:22:58;;;;;;;;;;;9.90;99.90;;;;;;2603661;54;19938;31